This is the latest recevied weather packets stored in our database for station/object N1ADJ. If no packets are shown the sender has not sent any weather packets the latest 10 day(s).
| Time | Temp. | Humidity | Pressure | Rain* | Wind** | Luminosity | Snow |
|---|---|---|---|---|---|---|---|
| 1777670117 | 16.67° C | 35% | 1007.1 hPa | 0 mm | - | - | - |
| 1777669817 | 16.67° C | 36% | 1007.1 hPa | 0 mm | - | - | - |
| 1777669217 | 17.22° C | 33% | 1007 hPa | 0 mm | - | - | - |
| 1777668317 | 17.22° C | 37% | 1006.8 hPa | 0 mm | - | - | - |
| 1777667717 | 17.22° C | 37% | 1006.8 hPa | 0 mm | - | - | - |
| 1777667137 | 17.22° C | 38% | 1006.6 hPa | 0 mm | - | - | - |
| 1777662617 | 16.67° C | 50% | 1006.6 hPa | 0 mm | - | - | - |
| 1777660817 | 15.56° C | 50% | 1006.8 hPa | 0 mm | - | - | - |
| 1777658117 | 15.56° C | 49% | 1006.7 hPa | 0 mm | - | - | - |
| 1777657537 | 15.56° C | 54% | 1006.8 hPa | 0 mm | - | - | - |
| 1777656017 | 15° C | 54% | 1006.9 hPa | 0 mm | - | - | - |
| 1777655416 | 15° C | 53% | 1006.8 hPa | 0 mm | - | - | - |
| 1777654817 | 15.56° C | 51% | 1006.9 hPa | 0 mm | - | - | - |
| 1777654517 | 15° C | 52% | 1007.1 hPa | 0 mm | - | - | - |
| 1777653917 | 14.44° C | 55% | 1007.2 hPa | 0 mm | - | - | - |
| 1777647637 | 13.33° C | 59% | 1007.5 hPa | 0 mm | - | - | - |
| 1777647016 | 12.78° C | 59% | 1007.6 hPa | 0 mm | - | - | - |
| 1777646716 | 12.78° C | 58% | 1007.6 hPa | 0 mm | - | - | - |
| 1777644619 | 12.22° C | 64% | 1007.6 hPa | 0 mm | - | - | - |
| 1777643418 | 11.67° C | 65% | 1007.6 hPa | 0 mm | - | - | - |
| 1777643118 | 11.67° C | 67% | 1007.7 hPa | 0 mm | - | - | - |
| 1777639816 | 10° C | 74% | 1007.5 hPa | 0 mm | - | - | - |
| 1777637118 | 8.89° C | 86% | 1007.2 hPa | 0 mm | - | - | - |
| 1777636238 | 8.33° C | 87% | 1007.2 hPa | 0 mm | - | - | - |
| 1777635318 | 8.33° C | 90% | 1007.5 hPa | 0 mm | - | - | - |
* Rain latest hour (hover to see other rain measurements)
** Current wind speed in m/s (hover to see current wind gust speed)